LZTT/TAT METAR and TAF weather

Enter ICAO airport designator
Station Type Date Time Source
LZTT METAR 2019/12/07 00:00 UTC NOAA

LZTT 070000Z 13004KT 5000 BR OVC003 M08/M09 Q1015


Station Type Date Time Source
LZTT Decoded METAR 2019/12/07 00:00 UTC NOAA

Poprad / Tatry, Slovakia (LZTT) 49-04N 020-15E 695M
Dec 06, 2019 - 07:00 PM EST / 2019.12.07 0000 UTC
Wind: from the SE (130 degrees) at 5 MPH (4 KT):0
Visibility: 3 mile(s):0
Sky conditions: overcast
Weather: mist
Temperature: 17 F (-8 C)
Windchill: 8 F (-13 C):1
Dew Point: 15 F (-9 C)
Relative Humidity: 92%
Pressure (altimeter): 29.97 in. Hg (1015 hPa)
ob: LZTT 070000Z 13004KT 5000 BR OVC003 M08/M09 Q1015
cycle: 0

Station Type Date Time Source
LZTT TAF 2019/12/06 18:59 UTC NOAA

TAF LZTT 061700Z 0618/0718 VRB02KT CAVOK
BECMG 0619/0621 5000 BR SCT005 PROB40
TEMPO 0701/0708 1400 BCFG BKN004
BECMG 0709/0711 26015KT 9999 BKN033 BKN060
TEMPO 0710/0715 -SHSN

Example: see airport list